createdAt,value
2024-02-13T00:01:55.492Z,1.00
2024-02-13T00:04:23.953Z,1.00
2024-02-13T00:06:56.474Z,1.00
2024-02-13T00:09:24.983Z,1.00
2024-02-13T00:11:53.580Z,1.00
2024-02-13T00:14:22.292Z,1.00
2024-02-13T00:16:50.928Z,1.00
2024-02-13T00:19:19.543Z,1.00
2024-02-13T00:21:50.239Z,1.00
2024-02-13T00:24:18.810Z,1.00
2024-02-13T00:26:48.698Z,1.00
2024-02-13T00:29:17.380Z,1.00
2024-02-13T00:31:46.079Z,1.00
2024-02-13T00:34:15.717Z,1.00
2024-02-13T00:36:44.230Z,1.00
2024-02-13T00:39:13.275Z,1.00
2024-02-13T00:41:43.167Z,1.00
2024-02-13T00:44:13.863Z,1.00
2024-02-13T00:46:42.411Z,1.00
2024-02-13T00:49:10.925Z,1.00
2024-02-13T00:51:39.503Z,1.00
2024-02-13T00:54:08.098Z,1.00
2024-02-13T00:56:36.724Z,1.00
2024-02-13T00:59:05.670Z,1.00
2024-02-13T01:01:34.579Z,1.00
2024-02-13T01:04:08.493Z,1.00
2024-02-13T01:06:40.151Z,1.00
2024-02-13T01:09:09.255Z,1.00
2024-02-13T01:11:38.136Z,1.00
2024-02-13T01:14:07.137Z,1.00
2024-02-13T01:16:35.882Z,1.00
2024-02-13T01:19:05.651Z,1.00
2024-02-13T01:21:34.330Z,1.00
2024-02-13T01:24:03.007Z,1.00
2024-02-13T01:26:31.559Z,1.00
2024-02-13T01:29:00.150Z,1.00
2024-02-13T01:31:28.642Z,1.00
2024-02-13T01:33:57.603Z,1.00
2024-02-13T01:36:26.196Z,1.00
2024-02-13T01:38:55.409Z,1.00
2024-02-13T01:41:24.083Z,1.00
2024-02-13T01:43:52.704Z,1.00
2024-02-13T01:46:22.713Z,1.00
2024-02-13T01:48:51.535Z,1.00
2024-02-13T01:51:20.245Z,1.00
2024-02-13T01:53:49.658Z,1.00
2024-02-13T01:56:18.387Z,1.00
2024-02-13T01:58:47.296Z,1.00
2024-02-13T02:01:16.354Z,1.00
2024-02-13T02:03:45.937Z,1.00
2024-02-13T02:06:14.629Z,1.00
2024-02-13T02:08:43.568Z,1.00
2024-02-13T02:11:13.231Z,1.00
2024-02-13T02:13:42.451Z,1.00
2024-02-13T02:16:11.145Z,1.00
2024-02-13T02:18:39.867Z,1.00
2024-02-13T02:21:09.975Z,1.00
2024-02-13T02:23:38.525Z,1.00
2024-02-13T02:26:08.762Z,1.00
2024-02-13T02:28:37.609Z,1.00
2024-02-13T02:31:06.384Z,1.00
2024-02-13T02:33:35.040Z,1.00
2024-02-13T02:36:03.690Z,1.00
2024-02-13T02:38:32.247Z,1.00
2024-02-13T02:41:00.771Z,1.00
2024-02-13T02:43:29.353Z,1.00
2024-02-13T02:45:58.188Z,1.00
2024-02-13T02:48:26.735Z,1.00
2024-02-13T02:50:55.376Z,1.00
2024-02-13T02:53:25.422Z,1.00
2024-02-13T02:55:55.348Z,1.00
2024-02-13T02:58:23.901Z,1.00
2024-02-13T03:00:54.090Z,1.00
2024-02-13T03:03:23.588Z,1.00
2024-02-13T03:05:53.747Z,1.00
2024-02-13T03:08:22.919Z,1.00
2024-02-13T03:10:51.510Z,1.00
2024-02-13T03:13:20.096Z,1.00
2024-02-13T03:15:48.964Z,1.00
2024-02-13T03:18:18.115Z,3.20
2024-02-13T03:20:47.189Z,7.30
2024-02-13T03:23:15.702Z,15.00
2024-02-13T03:25:44.210Z,19.00
2024-02-13T03:28:13.304Z,23.20
2024-02-13T03:30:41.795Z,25.80
2024-02-13T03:33:10.428Z,37.70
2024-02-13T03:35:39.031Z,52.60
2024-02-13T03:38:08.216Z,60.90
2024-02-13T03:40:36.757Z,64.40
2024-02-13T03:43:06.132Z,63.70
2024-02-13T03:45:34.772Z,60.20
2024-02-13T03:48:03.420Z,60.80
2024-02-13T03:50:32.072Z,62.10
2024-02-13T03:53:00.639Z,68.50
2024-02-13T03:55:29.190Z,70.80
2024-02-13T03:57:57.722Z,71.40
2024-02-13T04:00:26.951Z,78.60
2024-02-13T04:02:56.922Z,86.60
2024-02-13T04:05:26.823Z,87.60
2024-02-13T04:07:56.517Z,86.20
2024-02-13T04:10:25.993Z,90.50
2024-02-13T04:12:54.480Z,91.70
2024-02-13T04:15:22.994Z,93.90
2024-02-13T04:17:52.957Z,97.00
2024-02-13T04:20:21.583Z,99.90
2024-02-13T04:22:50.136Z,99.90
2024-02-13T04:25:18.764Z,99.90
2024-02-13T04:27:47.467Z,99.90
2024-02-13T04:30:16.141Z,99.90
2024-02-13T04:32:44.867Z,99.90
2024-02-13T04:35:16.367Z,99.90
2024-02-13T04:37:45.086Z,99.90
2024-02-13T04:40:14.713Z,99.90
2024-02-13T04:42:43.277Z,99.90
2024-02-13T04:45:12.128Z,99.90
2024-02-13T04:47:41.380Z,99.90
2024-02-13T04:50:12.038Z,99.50
2024-02-13T04:52:42.320Z,98.60
2024-02-13T04:55:10.928Z,99.30
2024-02-13T04:57:40.195Z,99.80
2024-02-13T05:00:20.434Z,98.20
2024-02-13T05:02:52.161Z,96.50
2024-02-13T05:05:39.020Z,94.00
2024-02-13T05:08:08.617Z,93.30
2024-02-13T05:10:37.116Z,91.30
2024-02-13T05:13:05.778Z,89.60
2024-02-13T05:15:34.545Z,89.50
2024-02-13T05:18:03.538Z,96.00
2024-02-13T05:20:32.242Z,99.90
2024-02-13T05:23:03.752Z,99.90
2024-02-13T05:25:33.197Z,99.90
2024-02-13T05:28:02.321Z,99.90
2024-02-13T05:30:30.929Z,99.90
2024-02-13T05:33:00.234Z,99.90
2024-02-13T05:35:28.781Z,99.90
2024-02-13T05:37:57.267Z,99.90
2024-02-13T05:40:25.819Z,99.90
2024-02-13T05:42:56.744Z,99.90
2024-02-13T05:45:25.247Z,99.90
2024-02-13T05:47:53.870Z,99.90
2024-02-13T05:50:22.665Z,99.90
2024-02-13T05:52:52.132Z,99.90
2024-02-13T05:55:20.961Z,99.90
2024-02-13T05:57:49.503Z,99.90
2024-02-13T06:00:18.321Z,99.90
2024-02-13T06:02:47.671Z,99.90
2024-02-13T06:05:16.479Z,99.90
2024-02-13T06:07:46.122Z,99.90
2024-02-13T06:10:14.702Z,99.90
2024-02-13T06:12:43.880Z,99.90
2024-02-13T06:15:12.621Z,99.90
2024-02-13T06:17:45.472Z,99.90
2024-02-13T06:20:14.752Z,99.90
2024-02-13T06:22:43.288Z,99.90
2024-02-13T06:25:13.251Z,99.90
2024-02-13T06:27:42.498Z,99.90
2024-02-13T06:30:12.234Z,99.90
2024-02-13T06:32:40.827Z,99.90
2024-02-13T06:35:09.657Z,99.90
2024-02-13T06:37:41.701Z,99.90
2024-02-13T06:40:11.222Z,99.90
2024-02-13T06:42:39.782Z,99.90
2024-02-13T06:45:11.618Z,99.90
2024-02-13T06:47:40.529Z,99.90
2024-02-13T06:50:14.042Z,99.90
2024-02-13T06:52:43.842Z,99.90
2024-02-13T06:55:12.819Z,99.90
2024-02-13T06:57:41.377Z,99.90
2024-02-13T07:00:15.672Z,99.90
2024-02-13T07:02:44.904Z,99.90
2024-02-13T07:05:13.534Z,99.90
2024-02-13T07:07:47.299Z,99.90
2024-02-13T07:10:18.310Z,99.90
2024-02-13T07:12:46.953Z,99.90
2024-02-13T07:15:16.171Z,99.90
2024-02-13T07:17:52.954Z,99.90
2024-02-13T07:20:28.533Z,99.90
2024-02-13T07:22:57.100Z,99.90
2024-02-13T07:25:25.710Z,99.90
2024-02-13T07:27:54.809Z,99.90
2024-02-13T07:30:24.009Z,99.90
2024-02-13T07:32:53.363Z,99.90
2024-02-13T07:35:24.193Z,99.90
2024-02-13T07:37:52.832Z,99.90
2024-02-13T07:40:21.645Z,99.90
2024-02-13T07:42:50.642Z,99.90
2024-02-13T07:45:19.147Z,99.90
2024-02-13T07:47:47.958Z,99.90
2024-02-13T07:50:16.714Z,99.90
2024-02-13T07:52:46.229Z,99.90
2024-02-13T07:55:14.722Z,99.90
2024-02-13T07:57:43.594Z,99.90
2024-02-13T08:00:12.846Z,99.90
2024-02-13T08:02:42.095Z,99.90
2024-02-13T08:05:10.826Z,99.90
2024-02-13T08:07:39.992Z,99.90
2024-02-13T08:10:12.127Z,99.90
2024-02-13T08:12:40.671Z,99.90
2024-02-13T08:15:10.118Z,99.90
2024-02-13T08:17:38.654Z,99.90
2024-02-13T08:20:10.623Z,99.90
2024-02-13T08:22:40.082Z,99.90
2024-02-13T08:25:09.686Z,99.90
2024-02-13T08:27:39.252Z,99.90
2024-02-13T08:30:12.047Z,99.90
2024-02-13T08:32:43.618Z,99.90
2024-02-13T08:35:12.598Z,99.90
2024-02-13T08:37:41.200Z,99.90
2024-02-13T08:40:10.286Z,99.90
2024-02-13T08:42:38.766Z,99.90
2024-02-13T08:45:08.708Z,99.90
2024-02-13T08:47:38.081Z,99.90
2024-02-13T08:50:07.911Z,99.90
2024-02-13T08:52:36.478Z,99.90
2024-02-13T08:55:05.141Z,99.90
2024-02-13T08:57:33.609Z,99.90
2024-02-13T09:00:02.478Z,99.90
2024-02-13T09:02:31.013Z,99.90
2024-02-13T09:04:59.624Z,99.90
2024-02-13T09:07:30.509Z,99.90
2024-02-13T09:09:59.171Z,99.90
2024-02-13T09:12:27.779Z,99.90
2024-02-13T09:14:57.329Z,99.90
2024-02-13T09:17:26.237Z,99.90
2024-02-13T09:19:54.935Z,99.90
2024-02-13T09:22:23.420Z,99.90
2024-02-13T09:24:54.070Z,99.90
2024-02-13T09:27:24.025Z,99.90
2024-02-13T09:29:54.697Z,99.90
2024-02-13T09:32:23.370Z,99.90
2024-02-13T09:34:51.897Z,99.90
2024-02-13T09:37:20.535Z,99.90
2024-02-13T09:39:49.086Z,99.90
2024-02-13T09:42:18.963Z,99.90
2024-02-13T09:44:49.498Z,99.90
2024-02-13T09:47:19.068Z,99.90
2024-02-13T09:49:49.686Z,99.90
2024-02-13T09:52:21.458Z,99.90
2024-02-13T09:54:51.294Z,99.90
2024-02-13T09:57:20.273Z,99.90
2024-02-13T09:59:48.952Z,99.90
2024-02-13T10:02:18.564Z,99.90
2024-02-13T10:04:53.031Z,99.90
2024-02-13T10:07:21.571Z,99.90
2024-02-13T10:09:51.349Z,99.90
2024-02-13T10:12:20.082Z,99.90
2024-02-13T10:15:00.205Z,99.90
2024-02-13T10:17:30.226Z,99.90
2024-02-13T10:19:58.907Z,99.90
2024-02-13T10:22:29.213Z,99.90
2024-02-13T10:25:02.271Z,99.90
2024-02-13T10:27:31.546Z,99.90
2024-02-13T10:30:00.195Z,99.90
2024-02-13T10:32:28.768Z,99.90
2024-02-13T10:34:57.397Z,99.90
2024-02-13T10:37:29.621Z,99.90
2024-02-13T10:40:03.511Z,99.90
2024-02-13T10:42:39.337Z,99.90
2024-02-13T10:45:11.712Z,99.90
2024-02-13T10:47:43.913Z,99.90
2024-02-13T10:50:12.584Z,99.90
2024-02-13T10:52:42.156Z,99.90
2024-02-13T10:55:12.873Z,99.90
2024-02-13T10:57:41.362Z,99.90
2024-02-13T11:00:10.605Z,99.90
2024-02-13T11:02:39.481Z,99.90
2024-02-13T11:05:11.979Z,99.90
2024-02-13T11:07:43.686Z,99.90
2024-02-13T11:10:12.918Z,99.90
2024-02-13T11:12:42.147Z,99.90
2024-02-13T11:15:15.180Z,99.90
2024-02-13T11:17:48.570Z,99.90
2024-02-13T11:20:21.384Z,99.90
2024-02-13T11:23:02.905Z,99.90
2024-02-13T11:25:43.681Z,99.90
2024-02-13T11:28:13.480Z,99.90
2024-02-13T11:30:45.369Z,99.90
2024-02-13T11:33:21.086Z,99.90
2024-02-13T11:36:01.002Z,99.90
2024-02-13T11:38:31.208Z,99.90
2024-02-13T11:40:59.706Z,99.90
2024-02-13T11:43:29.966Z,99.90
2024-02-13T11:46:05.951Z,99.90
2024-02-13T11:48:35.593Z,99.90
2024-02-13T11:51:05.184Z,99.90
2024-02-13T11:53:35.059Z,99.90
2024-02-13T11:56:05.980Z,99.90
2024-02-13T11:58:34.526Z,99.90
2024-02-13T12:01:07.558Z,99.90
2024-02-13T12:03:40.335Z,99.90
2024-02-13T12:06:09.124Z,99.90
2024-02-13T12:08:42.717Z,99.90
2024-02-13T12:11:11.529Z,99.90
2024-02-13T12:13:41.064Z,99.90
2024-02-13T12:16:11.601Z,99.90
2024-02-13T12:18:41.942Z,99.90
2024-02-13T12:21:15.056Z,99.90
2024-02-13T12:23:52.236Z,99.90
2024-02-13T12:26:21.134Z,99.90
2024-02-13T12:28:57.802Z,99.90
2024-02-13T12:31:29.778Z,99.90
2024-02-13T12:34:08.883Z,99.90
2024-02-13T12:36:37.754Z,99.90
2024-02-13T12:39:33.351Z,99.90
2024-02-13T12:42:03.701Z,99.90
2024-02-13T12:44:35.155Z,99.90
2024-02-13T12:47:05.861Z,99.90
2024-02-13T12:49:34.485Z,99.90
2024-02-13T12:52:03.607Z,99.90
2024-02-13T12:54:33.742Z,99.90
2024-02-13T12:57:02.756Z,99.90
2024-02-13T12:59:31.565Z,99.90
2024-02-13T13:02:01.090Z,99.90
2024-02-13T13:04:30.293Z,99.90
2024-02-13T13:06:59.083Z,99.90
2024-02-13T13:09:29.043Z,99.90
2024-02-13T13:11:58.120Z,99.90
2024-02-13T13:14:28.772Z,99.90
2024-02-13T13:16:58.262Z,99.90
2024-02-13T13:19:29.695Z,99.90
2024-02-13T13:21:59.934Z,99.90
2024-02-13T13:24:29.402Z,99.90
2024-02-13T13:26:58.043Z,99.90
2024-02-13T13:29:26.730Z,99.90
2024-02-13T13:31:55.310Z,99.90
2024-02-13T13:34:25.286Z,99.90
2024-02-13T13:36:55.289Z,99.90
2024-02-13T13:39:31.162Z,99.90
2024-02-13T13:42:10.264Z,99.90
2024-02-13T13:44:40.152Z,99.90
2024-02-13T13:47:09.856Z,99.90
2024-02-13T13:49:39.709Z,99.90
2024-02-13T13:52:08.616Z,99.90
2024-02-13T13:54:37.293Z,99.90
2024-02-13T13:57:05.976Z,99.90
2024-02-13T13:59:34.612Z,99.90
2024-02-13T14:02:03.227Z,99.90
2024-02-13T14:04:31.765Z,99.90
2024-02-13T14:07:01.525Z,99.90
2024-02-13T14:09:30.114Z,99.90
2024-02-13T14:12:00.292Z,99.90
2024-02-13T14:14:28.863Z,99.90
2024-02-13T14:16:57.433Z,99.90
2024-02-13T14:19:26.256Z,99.90
2024-02-13T14:21:55.274Z,99.90
2024-02-13T14:24:23.834Z,99.90
2024-02-13T14:26:53.070Z,99.90
2024-02-13T14:29:21.655Z,99.90
2024-02-13T14:31:50.402Z,99.90
2024-02-13T14:34:19.050Z,99.90
2024-02-13T14:36:49.184Z,99.90
2024-02-13T14:39:20.897Z,99.90
2024-02-13T14:41:55.946Z,99.90
2024-02-13T14:44:27.299Z,99.90
2024-02-13T14:47:00.176Z,99.90
2024-02-13T14:49:30.102Z,99.90
2024-02-13T14:51:59.835Z,99.90
2024-02-13T14:54:28.594Z,99.90
2024-02-13T14:56:57.298Z,99.90
2024-02-13T14:59:27.132Z,99.90
2024-02-13T15:01:59.243Z,99.90
2024-02-13T15:04:28.297Z,99.90
2024-02-13T15:06:56.902Z,99.90
2024-02-13T15:09:25.445Z,99.90
2024-02-13T15:11:54.015Z,99.90
2024-02-13T15:14:22.585Z,99.90
2024-02-13T15:16:51.185Z,99.90
2024-02-13T15:19:22.204Z,99.90
2024-02-13T15:21:51.613Z,99.90
2024-02-13T15:24:24.573Z,99.90
2024-02-13T15:26:53.151Z,99.90
2024-02-13T15:29:23.001Z,99.90
2024-02-13T15:31:51.529Z,99.90
2024-02-13T15:34:20.239Z,99.90
2024-02-13T15:37:03.513Z,99.90
2024-02-13T15:39:50.781Z,99.90
2024-02-13T15:42:37.845Z,99.90
2024-02-13T15:45:25.093Z,99.90
2024-02-13T15:47:53.803Z,99.90
2024-02-13T15:50:23.423Z,99.90
2024-02-13T15:52:52.575Z,99.90
2024-02-13T15:55:21.196Z,99.90
2024-02-13T15:57:49.732Z,99.90
2024-02-13T16:00:19.649Z,99.90
2024-02-13T16:02:48.679Z,99.90
2024-02-13T16:05:17.409Z,99.90
2024-02-13T16:07:46.535Z,99.90
2024-02-13T16:10:18.945Z,99.90
2024-02-13T16:12:47.513Z,99.90
2024-02-13T16:15:16.157Z,99.90
2024-02-13T16:17:45.296Z,99.90
2024-02-13T16:20:14.646Z,99.90
2024-02-13T16:22:46.321Z,99.90
2024-02-13T16:25:15.779Z,99.90
2024-02-13T16:27:48.081Z,99.90
2024-02-13T16:30:16.752Z,99.90
2024-02-13T16:32:45.331Z,99.90
2024-02-13T16:35:14.143Z,99.90
2024-02-13T16:37:44.551Z,99.90
2024-02-13T16:40:15.768Z,99.90
2024-02-13T16:42:44.629Z,95.00
2024-02-13T16:45:14.996Z,97.30
2024-02-13T16:47:43.677Z,99.90
2024-02-13T16:50:16.449Z,99.30
2024-02-13T16:52:45.268Z,99.10
2024-02-13T16:55:15.408Z,95.90
2024-02-13T16:57:46.037Z,93.80
2024-02-13T17:00:15.719Z,91.60
2024-02-13T17:02:44.343Z,91.00
2024-02-13T17:05:13.519Z,88.40
2024-02-13T17:07:42.863Z,81.90
2024-02-13T17:10:13.838Z,80.50
2024-02-13T17:12:42.876Z,87.20
2024-02-13T17:15:13.649Z,81.70
2024-02-13T17:17:43.680Z,82.50
2024-02-13T17:20:15.968Z,87.00
2024-02-13T17:22:44.596Z,88.00
2024-02-13T17:25:14.046Z,94.10
2024-02-13T17:27:43.111Z,90.30
2024-02-13T17:30:16.898Z,85.50
2024-02-13T17:32:47.236Z,79.90
2024-02-13T17:35:16.413Z,78.40
2024-02-13T17:37:45.032Z,86.10
2024-02-13T17:40:15.458Z,85.00
2024-02-13T17:42:44.185Z,87.50
2024-02-13T17:45:13.425Z,91.60
2024-02-13T17:47:42.027Z,84.40
2024-02-13T17:50:12.096Z,79.30
2024-02-13T17:52:43.984Z,76.30
2024-02-13T17:55:18.211Z,84.00
2024-02-13T17:57:47.478Z,73.90
2024-02-13T18:00:23.322Z,72.40
2024-02-13T18:02:52.122Z,64.60
2024-02-13T18:05:21.520Z,61.80
2024-02-13T18:07:50.112Z,47.50
2024-02-13T18:10:18.638Z,31.40
2024-02-13T18:12:47.136Z,25.20
2024-02-13T18:15:16.733Z,24.40
2024-02-13T18:17:47.090Z,21.50
2024-02-13T18:20:16.959Z,15.10
2024-02-13T18:22:46.304Z,1.00
2024-02-13T18:25:14.963Z,1.00
2024-02-13T18:27:43.788Z,1.00
2024-02-13T18:30:15.727Z,1.00
2024-02-13T18:32:45.288Z,1.00
2024-02-13T18:35:14.013Z,1.00
2024-02-13T18:37:42.809Z,1.00
2024-02-13T18:40:12.361Z,1.00
2024-02-13T18:42:40.954Z,1.00
2024-02-13T18:45:13.316Z,1.00
2024-02-13T18:47:46.103Z,1.00
2024-02-13T18:50:15.028Z,1.00
2024-02-13T18:52:43.896Z,1.00
2024-02-13T18:55:12.966Z,1.00
2024-02-13T18:57:44.559Z,1.00
2024-02-13T19:00:18.201Z,1.00
2024-02-13T19:02:46.855Z,1.00
2024-02-13T19:05:15.629Z,1.00
2024-02-13T19:07:44.237Z,1.00
2024-02-13T19:10:13.064Z,1.00
2024-02-13T19:12:44.340Z,1.00
2024-02-13T19:15:13.844Z,1.00
2024-02-13T19:17:43.513Z,1.00
2024-02-13T19:20:14.374Z,1.00
2024-02-13T19:22:43.110Z,1.00
2024-02-13T19:25:11.761Z,1.00
2024-02-13T19:27:41.106Z,1.00
2024-02-13T19:30:10.768Z,1.00
2024-02-13T19:32:40.318Z,1.00
2024-02-13T19:35:10.513Z,1.00
2024-02-13T19:37:39.060Z,1.00
2024-02-13T19:40:09.074Z,1.00
2024-02-13T19:42:37.589Z,1.00
2024-02-13T19:45:06.789Z,1.00
2024-02-13T19:47:35.613Z,1.00
2024-02-13T19:50:04.651Z,1.00
2024-02-13T19:52:35.221Z,1.00
2024-02-13T19:55:03.995Z,1.00
2024-02-13T19:57:32.596Z,1.00
2024-02-13T20:00:01.336Z,1.00
2024-02-13T20:02:30.344Z,1.00
2024-02-13T20:04:59.801Z,1.00
2024-02-13T20:07:28.338Z,1.00
2024-02-13T20:09:56.915Z,1.00
2024-02-13T20:12:26.213Z,1.00
2024-02-13T20:14:54.870Z,1.00
2024-02-13T20:17:23.579Z,1.00
2024-02-13T20:19:52.399Z,1.00
2024-02-13T20:22:21.473Z,1.00
2024-02-13T20:24:49.983Z,1.00
2024-02-13T20:27:18.619Z,1.00
2024-02-13T20:29:48.025Z,1.00
2024-02-13T20:32:16.653Z,1.00
2024-02-13T20:34:45.243Z,1.00
2024-02-13T20:37:14.186Z,1.00
2024-02-13T20:39:43.821Z,1.00
2024-02-13T20:42:12.459Z,1.00
2024-02-13T20:44:42.484Z,1.00
2024-02-13T20:47:12.451Z,1.00
2024-02-13T20:49:41.421Z,1.00
2024-02-13T20:52:10.041Z,1.00
2024-02-13T20:54:38.628Z,1.00
2024-02-13T20:57:07.561Z,1.00
2024-02-13T20:59:36.248Z,1.00
2024-02-13T21:02:05.161Z,1.00
2024-02-13T21:04:34.182Z,1.00
2024-02-13T21:07:03.862Z,1.00
2024-02-13T21:09:32.582Z,1.00
2024-02-13T21:12:01.503Z,1.00
2024-02-13T21:14:30.841Z,1.00
2024-02-13T21:16:59.467Z,1.00
2024-02-13T21:19:28.212Z,1.00
2024-02-13T21:22:14.978Z,1.00
2024-02-13T21:24:43.490Z,1.00
2024-02-13T21:27:12.188Z,1.00
2024-02-13T21:29:40.914Z,1.00
2024-02-13T21:32:09.650Z,1.00
2024-02-13T21:34:40.273Z,1.00
2024-02-13T21:37:08.912Z,1.00
2024-02-13T21:39:39.349Z,1.00
2024-02-13T21:42:08.328Z,1.00
2024-02-13T21:44:36.912Z,1.00
2024-02-13T21:47:05.765Z,1.00
2024-02-13T21:49:34.389Z,1.00
2024-02-13T21:52:03.657Z,1.00
2024-02-13T21:54:32.410Z,1.00
2024-02-13T21:57:01.188Z,1.00
2024-02-13T21:59:29.820Z,1.00
2024-02-13T22:01:58.481Z,1.00
2024-02-13T22:04:27.121Z,1.00
2024-02-13T22:06:56.107Z,1.00
2024-02-13T22:09:24.761Z,1.00
2024-02-13T22:11:53.430Z,1.00
2024-02-13T22:14:22.236Z,1.00
2024-02-13T22:16:53.070Z,1.00
2024-02-13T22:19:21.775Z,1.00
2024-02-13T22:21:50.378Z,1.00
2024-02-13T22:24:18.937Z,1.00
2024-02-13T22:26:47.576Z,1.00
2024-02-13T22:29:16.138Z,1.00
2024-02-13T22:31:44.656Z,1.00
2024-02-13T22:34:14.976Z,1.00
2024-02-13T22:36:43.535Z,1.00
2024-02-13T22:39:14.130Z,1.00
2024-02-13T22:41:42.715Z,1.00
2024-02-13T22:44:11.266Z,1.00
2024-02-13T22:46:39.799Z,1.00
2024-02-13T22:49:08.960Z,1.00
2024-02-13T22:51:38.393Z,1.00
2024-02-13T22:54:07.753Z,1.00
2024-02-13T22:56:36.809Z,1.00
2024-02-13T22:59:05.448Z,1.00
2024-02-13T23:01:35.951Z,1.00
2024-02-13T23:04:06.146Z,1.00
2024-02-13T23:06:34.898Z,1.00
2024-02-13T23:09:12.072Z,1.00
2024-02-13T23:11:41.388Z,1.00
2024-02-13T23:14:09.907Z,1.00
2024-02-13T23:16:42.505Z,1.00
2024-02-13T23:19:12.232Z,1.00
2024-02-13T23:21:41.011Z,1.00
2024-02-13T23:24:10.251Z,1.00
2024-02-13T23:26:42.117Z,1.00
2024-02-13T23:29:13.258Z,1.00
2024-02-13T23:31:41.925Z,1.00
2024-02-13T23:34:11.478Z,1.00
2024-02-13T23:36:41.097Z,1.00
2024-02-13T23:39:10.415Z,1.00
2024-02-13T23:41:39.504Z,1.00
2024-02-13T23:44:08.371Z,1.00
2024-02-13T23:46:36.968Z,1.00
2024-02-13T23:49:05.814Z,1.00
2024-02-13T23:51:34.573Z,1.00
2024-02-13T23:54:03.230Z,1.00
2024-02-13T23:56:31.853Z,1.00
2024-02-13T23:59:00.593Z,1.00
